createdAt,value
2019-02-18T00:04:32.723Z,8.9
2019-02-18T00:15:20.812Z,9.4
2019-02-18T00:26:08.576Z,8.8
2019-02-18T00:36:55.876Z,10
2019-02-18T00:49:51.932Z,9.2
2019-02-18T01:00:40.115Z,9.1
2019-02-18T01:11:27.418Z,8.9
2019-02-18T01:22:15.802Z,8.8
2019-02-18T01:35:25.727Z,8.8
2019-02-18T01:46:14.046Z,8.9
2019-02-18T01:57:01.459Z,8.6
2019-02-18T02:07:55.816Z,8.8
2019-02-18T02:23:31.232Z,7.7
2019-02-18T02:34:18.821Z,8.3
2019-02-18T02:45:06.108Z,8.1
2019-02-18T02:55:53.586Z,8.3
2019-02-18T03:06:41.290Z,8.2
2019-02-18T03:17:29.291Z,8.8
2019-02-18T03:28:17.182Z,8
2019-02-18T03:39:04.916Z,8.1
2019-02-18T03:49:53.330Z,8.1
2019-02-18T04:00:41.977Z,8.6
2019-02-18T04:11:30.487Z,8.3
2019-02-18T04:22:19.291Z,7.6
2019-02-18T04:33:06.676Z,7.9
2019-02-18T04:43:55.359Z,8.4
2019-02-18T04:54:42.927Z,8.1
2019-02-18T05:05:30.876Z,8.7
2019-02-18T05:16:18.244Z,8.7
2019-02-18T05:27:06.457Z,8.8
2019-02-18T05:37:54.222Z,9.1
2019-02-18T05:50:32.940Z,9.7
2019-02-18T06:01:20.644Z,10
2019-02-18T06:12:08.697Z,10.6
2019-02-18T06:22:57.823Z,12
2019-02-18T06:33:45.675Z,13.1
2019-02-18T06:44:33.788Z,20.2
2019-02-18T06:55:21.747Z,24.1
2019-02-18T07:06:09.683Z,21.1
2019-02-18T07:16:57.034Z,28.1
2019-02-18T07:27:44.324Z,22.8
2019-02-18T07:38:31.774Z,21.8
2019-02-18T07:49:19.606Z,20.9
2019-02-18T08:00:08.531Z,20
2019-02-18T08:10:55.856Z,29.4
2019-02-18T08:21:43.479Z,27.1
2019-02-18T08:32:30.573Z,27.8
2019-02-18T08:43:18.481Z,36.2
2019-02-18T08:46:24.141Z,32.1
2019-02-18T08:57:11.483Z,28.8
2019-02-18T09:12:39.775Z,21.8
2019-02-18T09:23:27.742Z,21.9
2019-02-18T09:25:21.366Z,21.6
2019-02-18T09:36:09.077Z,38.3
2019-02-18T09:46:56.309Z,48.1
2019-02-18T09:57:44.109Z,51.7
2019-02-18T10:08:31.350Z,52.7
2019-02-18T10:19:18.452Z,55.6
2019-02-18T10:30:06.115Z,53.9
2019-02-18T10:40:53.763Z,49.6
2019-02-18T10:51:41.116Z,48.2
2019-02-18T11:02:29.511Z,44.5
2019-02-18T11:13:16.655Z,39.3
2019-02-18T11:24:03.959Z,34.6
2019-02-18T11:34:53.093Z,32
2019-02-18T11:45:40.196Z,29.6
2019-02-18T11:56:27.773Z,28.8
2019-02-18T12:07:15.384Z,27.1
2019-02-18T12:18:02.982Z,25.4
2019-02-18T12:28:51.557Z,25.4
2019-02-18T12:39:39.191Z,24.6
2019-02-18T12:50:26.708Z,22.9
2019-02-18T13:01:15.235Z,21.3
2019-02-18T13:12:03.752Z,20.8
2019-02-18T13:22:50.998Z,22.5
2019-02-18T13:33:38.851Z,24.6
2019-02-18T13:44:26.013Z,25
2019-02-18T13:55:13.807Z,25.3
2019-02-18T14:06:02.063Z,25.3
2019-02-18T14:16:49.759Z,23.4
2019-02-18T14:27:36.904Z,21.4
2019-02-18T14:38:25.323Z,19.5
2019-02-18T14:49:12.448Z,18.3
2019-02-18T15:00:01.345Z,17.8
2019-02-18T15:10:49.251Z,16.7
2019-02-18T15:21:36.580Z,15.7
2019-02-18T15:32:24.702Z,19.8
2019-02-18T15:43:12.604Z,21.1
2019-02-18T15:54:00.731Z,27.6
2019-02-18T16:04:48.920Z,24.2
2019-02-18T16:15:36.017Z,25.4
2019-02-18T16:26:24.546Z,25.8
2019-02-18T16:37:12.693Z,22.1
2019-02-18T16:48:01.707Z,20
2019-02-18T16:58:50.380Z,20.4
2019-02-18T17:09:38.310Z,19.1
2019-02-18T17:20:25.933Z,17.5
2019-02-18T19:40:37.335Z,21.9
2019-02-18T20:45:44.845Z,34.4
2019-02-18T20:56:07.949Z,27.5
2019-02-18T21:06:54.741Z,30.8
2019-02-18T21:17:41.967Z,26.8
2019-02-18T21:23:59.065Z,31.4
2019-02-18T21:43:27.631Z,29.9
2019-02-18T22:04:09.915Z,87.8
2019-02-18T22:14:58.788Z,88.4
2019-02-18T22:25:46.624Z,88.6
2019-02-18T22:27:58.484Z,96.8
2019-02-18T22:38:46.284Z,88.7
2019-02-18T22:49:33.293Z,86.6
2019-02-18T23:02:25.031Z,80.3
2019-02-18T23:13:12.029Z,78.8
2019-02-18T23:23:59.861Z,79.1
2019-02-18T23:34:47.039Z,79.3
2019-02-18T23:47:56.777Z,72.2
2019-02-18T23:58:43.995Z,75.5
